LTBU METAR and TAF | Updated Today

LTBU METAR

Tekirdağ Çorlu Airport

Observation time: 22 min. ago

LTBU 200750Z 09006KT 040V120 CAVOK 18/08 Q1026 RMK RWY22 07006KT 030V110

Need help? Read our tutorial on how to read METARs or read the parsed version below.

Tekirdağ Çorlu Airport (LTBU) METAR

  • Weather conditions on Fri, 20 May 2022 07:50:00 +0000 (22 min. ago):
  • Present conditions: Dry
  • Clouds: Clear skies
  • Visibility: Greater than 10 km
  • Wind: 90 degrees at 6 knots
  • Temperature: 18 celsius
  • Dew point: 8 celsius
  • Pressure: 1026 millibars
  • Remarks: RWY22 07006KT 030V110


Useful to know...

LTBU TAF

Tekirdağ Çorlu Airport

TAF LTBU 200440Z 2006/2106 VRB02KT CAVOK BECMG 2007/2010 06012KT BECMG 2016/2019 35005KT
Observation time: 3:32 hr. ago
Need help? Read our tutorial on how to read TAFs or read the parsed version below.

Parsed version of TAF for Tekirdağ Çorlu Airport (LTBU)

  • From 20 May at 06:00 UTC, to day 21 of the month at 06:00 UTC
  • Visibility: Greater than 10 km
  • Wind: Variable at 2
  • Expected to arise soon, from 20 May at 07:00 UTC, to day 20 of the month at 10:00 UTC
  • Wind: 60 degrees at 12
  • Expected to arise soon, from 20 May at 16:00 UTC, to day 20 of the month at 19:00 UTC
  • Wind: 350 degrees at 5